Craigmont, Idaho
Current Conditions -  °F | °C
As of 11:00 AM on Monday 20 Oct 2014 (Local Time) from KGIC Reporting Station
Clear Clear  
Wind Chill: 67°   Ceiling: Unl
Heat Index: 67°   Visibility: 2.5mi
Dew Point: 33°   Wind: 3mph
Humidity: 28%   Direction: 40°NE
Pressure: 29.85"   Gusts: NA
Location:  46.24°N, 116.47°W
Report Text: KGIC 201800Z AUTO 04003KT 2 1/2SM CLR 20/01 A2985 RMK AO1 VIS 1V5 T01950005
Loading
Personal Weather Stations






























Interactive Weather Map
Tropical Storm Tracking
New forecast layout! Learn more

10-Day Weather Forecast

Advertisements
Track Severe Weather on mobile